createdAt,value
2018-04-07T00:00:12.122Z,99.90
2018-04-07T00:02:40.498Z,99.90
2018-04-07T00:05:08.814Z,99.90
2018-04-07T00:07:37.142Z,99.90
2018-04-07T00:10:06.520Z,99.90
2018-04-07T00:12:34.852Z,99.90
2018-04-07T00:15:03.160Z,99.90
2018-04-07T00:17:32.607Z,99.90
2018-04-07T00:20:00.912Z,99.90
2018-04-07T00:22:29.261Z,99.90
2018-04-07T00:24:59.179Z,99.90
2018-04-07T00:27:27.530Z,99.90
2018-04-07T00:29:55.910Z,99.90
2018-04-07T00:32:24.504Z,99.90
2018-04-07T00:34:52.804Z,99.90
2018-04-07T00:37:21.113Z,99.90
2018-04-07T00:39:50.817Z,99.90
2018-04-07T00:42:19.212Z,99.90
2018-04-07T00:44:47.507Z,99.90
2018-04-07T00:47:15.820Z,99.90
2018-04-07T00:49:45.109Z,99.90
2018-04-07T00:52:17.490Z,99.90
2018-04-07T00:54:46.751Z,99.90
2018-04-07T00:57:17.437Z,99.90
2018-04-07T00:59:45.759Z,99.90
2018-04-07T01:02:18.217Z,99.90
2018-04-07T01:04:46.520Z,99.90
2018-04-07T01:07:14.822Z,99.90
2018-04-07T01:09:44.085Z,99.90
2018-04-07T01:12:13.156Z,99.90
2018-04-07T01:14:41.472Z,99.90
2018-04-07T01:17:10.487Z,99.90
2018-04-07T01:19:39.584Z,99.90
2018-04-07T01:22:08.643Z,99.90
2018-04-07T01:24:38.047Z,99.90
2018-04-07T01:27:06.337Z,99.90
2018-04-07T01:29:34.646Z,99.90
2018-04-07T01:32:04.461Z,99.90
2018-04-07T01:34:33.556Z,99.90
2018-04-07T01:37:01.879Z,99.90
2018-04-07T01:39:30.591Z,99.90
2018-04-07T01:41:58.946Z,99.90
2018-04-07T01:44:27.262Z,99.90
2018-04-07T01:46:56.411Z,99.90
2018-04-07T01:49:24.778Z,99.90
2018-04-07T01:51:53.076Z,99.90
2018-04-07T01:54:22.350Z,99.90
2018-04-07T01:56:52.989Z,99.90
2018-04-07T01:59:22.850Z,99.90
2018-04-07T02:01:52.370Z,99.90
2018-04-07T02:04:20.676Z,99.90
2018-04-07T02:06:48.957Z,99.90
2018-04-07T02:09:18.089Z,99.90
2018-04-07T02:11:47.165Z,99.90
2018-04-07T02:14:15.970Z,99.90
2018-04-07T02:16:46.568Z,99.90
2018-04-07T02:19:14.921Z,99.90
2018-04-07T02:21:43.259Z,99.90
2018-04-07T02:24:12.762Z,99.90
2018-04-07T02:26:41.084Z,99.90
2018-04-07T02:29:10.448Z,99.90
2018-04-07T02:31:39.688Z,99.90
2018-04-07T02:34:08.769Z,99.90
2018-04-07T02:36:37.060Z,99.90
2018-04-07T02:39:06.612Z,99.90
2018-04-07T02:41:34.895Z,99.90
2018-04-07T02:44:03.181Z,99.90
2018-04-07T02:46:31.925Z,99.90
2018-04-07T02:49:00.232Z,99.90
2018-04-07T02:51:28.561Z,99.90
2018-04-07T02:53:58.136Z,99.90
2018-04-07T02:56:26.442Z,99.90
2018-04-07T02:58:54.923Z,99.90
2018-04-07T03:01:26.900Z,99.90
2018-04-07T03:03:56.240Z,99.90
2018-04-07T03:06:25.322Z,99.90
2018-04-07T03:08:53.614Z,99.90
2018-04-07T03:11:22.825Z,99.90
2018-04-07T03:13:51.898Z,99.90
2018-04-07T03:16:20.254Z,99.90
2018-04-07T03:18:50.261Z,99.90
2018-04-07T03:21:18.566Z,99.90
2018-04-07T03:23:46.873Z,99.90
2018-04-07T03:26:15.994Z,99.90
2018-04-07T03:28:45.083Z,99.90
2018-04-07T03:31:13.380Z,99.90
2018-04-07T03:33:44.209Z,99.90
2018-04-07T03:36:12.502Z,99.90
2018-04-07T03:38:40.799Z,99.90
2018-04-07T03:41:10.376Z,99.90
2018-04-07T03:43:38.674Z,99.90
2018-04-07T03:46:07.735Z,99.90
2018-04-07T03:48:37.891Z,99.90
2018-04-07T03:51:06.942Z,99.90
2018-04-07T03:53:35.245Z,99.90
2018-04-07T03:56:05.236Z,99.90
2018-04-07T03:58:33.685Z,99.90
2018-04-07T04:01:02.747Z,99.90
2018-04-07T04:03:32.987Z,99.90
2018-04-07T04:06:01.278Z,99.90
2018-04-07T04:08:29.606Z,99.90
2018-04-07T04:10:58.763Z,99.90
2018-04-07T04:13:27.826Z,99.90
2018-04-07T04:15:56.968Z,99.90
2018-04-07T04:18:26.906Z,99.90
2018-04-07T04:20:55.212Z,99.90
2018-04-07T04:23:23.515Z,99.90
2018-04-07T04:25:52.547Z,99.90
2018-04-07T04:28:21.635Z,99.90
2018-04-07T04:30:49.926Z,99.90
2018-04-07T04:33:19.839Z,99.90
2018-04-07T04:35:48.135Z,99.90
2018-04-07T04:38:16.432Z,99.90
2018-04-07T04:40:45.183Z,99.90
2018-04-07T04:43:13.468Z,99.90
2018-04-07T04:45:53.092Z,99.90
2018-04-07T04:48:26.390Z,99.90
2018-04-07T04:50:55.614Z,99.90
2018-04-07T04:53:24.704Z,99.90
2018-04-07T04:55:53.000Z,99.90
2018-04-07T04:58:23.156Z,99.90
2018-04-07T05:00:51.441Z,99.90
2018-04-07T05:03:19.777Z,99.90
2018-04-07T05:05:50.238Z,99.90
2018-04-07T05:08:18.575Z,99.90
2018-04-07T05:10:46.915Z,99.90
2018-04-07T05:13:16.067Z,99.90
2018-04-07T05:15:44.373Z,99.90
2018-04-07T05:18:13.465Z,99.90
2018-04-07T05:20:43.209Z,99.90
2018-04-07T05:23:11.515Z,99.90
2018-04-07T05:25:39.814Z,99.90
2018-04-07T05:28:08.173Z,99.90
2018-04-07T05:30:37.314Z,99.90
2018-04-07T05:33:05.622Z,99.90
2018-04-07T05:35:34.676Z,99.90
2018-04-07T05:38:02.982Z,99.90
2018-04-07T05:40:32.907Z,99.90
2018-04-07T05:43:01.988Z,99.90
2018-04-07T05:45:30.282Z,99.90
2018-04-07T05:47:59.589Z,99.90
2018-04-07T05:50:28.644Z,99.90
2018-04-07T05:52:56.974Z,99.90
2018-04-07T05:55:26.869Z,99.90
2018-04-07T05:57:55.147Z,99.90
2018-04-07T06:00:23.481Z,99.90
2018-04-07T06:02:52.655Z,99.90
2018-04-07T06:05:21.729Z,99.90
2018-04-07T06:07:52.911Z,99.90
2018-04-07T06:10:21.234Z,99.90
2018-04-07T06:12:49.527Z,99.90
2018-04-07T06:15:18.445Z,99.90
2018-04-07T06:17:46.745Z,99.90
2018-04-07T06:20:15.789Z,99.90
2018-04-07T06:22:45.001Z,99.90
2018-04-07T06:25:13.303Z,99.90
2018-04-07T06:27:41.664Z,99.90
2018-04-07T06:30:11.454Z,99.90
2018-04-07T06:32:39.907Z,99.90
2018-04-07T06:35:08.967Z,99.90
2018-04-07T06:37:38.285Z,99.90
2018-04-07T06:40:06.582Z,99.90
2018-04-07T06:42:35.671Z,99.90
2018-04-07T06:45:03.981Z,99.90
2018-04-07T06:47:34.244Z,99.90
2018-04-07T06:50:02.739Z,99.90
2018-04-07T06:52:31.101Z,99.90
2018-04-07T06:55:00.376Z,99.90
2018-04-07T06:57:29.499Z,99.90
2018-04-07T06:59:57.845Z,99.90
2018-04-07T07:02:27.771Z,99.90
2018-04-07T07:04:56.844Z,99.90
2018-04-07T07:07:26.574Z,99.90
2018-04-07T07:09:57.735Z,99.90
2018-04-07T07:12:26.095Z,99.90
2018-04-07T07:14:54.395Z,99.90
2018-04-07T07:17:24.349Z,99.90
2018-04-07T07:19:54.604Z,99.90
2018-04-07T07:22:25.394Z,99.90
2018-04-07T07:24:54.786Z,99.90
2018-04-07T07:27:23.333Z,99.90
2018-04-07T07:29:52.678Z,99.90
2018-04-07T07:32:21.222Z,99.90
2018-04-07T07:34:50.375Z,99.90
2018-04-07T07:37:19.978Z,99.90
2018-04-07T07:39:49.274Z,99.90
2018-04-07T07:42:18.546Z,99.90
2018-04-07T07:44:47.286Z,99.90
2018-04-07T07:47:16.166Z,99.90
2018-04-07T07:49:46.363Z,99.90
2018-04-07T07:52:15.470Z,99.90
2018-04-07T07:54:45.589Z,99.90
2018-04-07T07:57:16.470Z,99.90
2018-04-07T07:59:44.786Z,99.90
2018-04-07T08:02:25.416Z,99.90
2018-04-07T08:04:54.831Z,99.90
2018-04-07T08:07:23.435Z,99.90
2018-04-07T08:09:52.542Z,99.90
2018-04-07T08:12:24.233Z,99.90
2018-04-07T08:14:54.754Z,99.90
2018-04-07T08:17:25.571Z,99.90
2018-04-07T08:19:57.369Z,99.90
2018-04-07T08:22:27.821Z,99.90
2018-04-07T08:24:56.577Z,99.90
2018-04-07T08:27:27.530Z,99.90
2018-04-07T08:29:59.110Z,99.90
2018-04-07T08:32:27.692Z,99.90
2018-04-07T08:34:56.418Z,99.90
2018-04-07T08:37:27.103Z,99.90
2018-04-07T08:39:55.894Z,99.90
2018-04-07T08:42:28.361Z,97.90
2018-04-07T08:45:00.272Z,93.50
2018-04-07T08:47:32.226Z,85.50
2018-04-07T08:50:08.430Z,85.40
2018-04-07T08:52:37.892Z,89.20
2018-04-07T08:55:07.352Z,84.70
2018-04-07T08:57:46.310Z,82.00
2018-04-07T09:00:23.880Z,89.20
2018-04-07T09:02:54.142Z,87.20
2018-04-07T09:05:27.519Z,87.30
2018-04-07T09:07:57.767Z,83.50
2018-04-07T09:10:27.887Z,78.40
2018-04-07T09:12:58.464Z,71.70
2018-04-07T09:15:30.460Z,74.40
2018-04-07T09:18:01.415Z,72.00
2018-04-07T09:20:30.730Z,72.00
2018-04-07T09:23:00.571Z,70.10
2018-04-07T09:25:29.662Z,70.50
2018-04-07T09:27:58.773Z,70.30
2018-04-07T09:30:29.394Z,68.80
2018-04-07T09:32:57.725Z,68.80
2018-04-07T09:35:26.018Z,69.50
2018-04-07T09:37:56.589Z,69.20
2018-04-07T09:40:27.557Z,62.90
2018-04-07T09:42:56.530Z,62.80
2018-04-07T09:45:25.629Z,59.40
2018-04-07T09:47:54.731Z,60.90
2018-04-07T09:50:25.357Z,59.80
2018-04-07T09:53:01.254Z,59.70
2018-04-07T09:55:30.627Z,60.30
2018-04-07T09:57:59.697Z,60.80
2018-04-07T10:00:28.029Z,60.70
2018-04-07T10:03:02.491Z,59.30
2018-04-07T10:05:30.810Z,55.70
2018-04-07T10:07:59.914Z,52.50
2018-04-07T10:10:28.904Z,52.70
2018-04-07T10:12:59.512Z,51.90
2018-04-07T10:15:27.833Z,51.90
2018-04-07T10:17:57.638Z,52.40
2018-04-07T10:20:26.818Z,49.50
2018-04-07T10:22:55.903Z,50.00
2018-04-07T10:25:28.889Z,49.90
2018-04-07T10:27:57.215Z,49.60
2018-04-07T10:30:26.292Z,52.70
2018-04-07T10:32:55.337Z,52.60
2018-04-07T10:35:23.663Z,51.20
2018-04-07T10:37:51.951Z,52.40
2018-04-07T10:40:20.663Z,51.90
2018-04-07T10:42:49.715Z,49.40
2018-04-07T10:45:18.220Z,49.30
2018-04-07T10:47:48.551Z,48.50
2018-04-07T10:50:16.836Z,48.60
2018-04-07T10:52:45.217Z,48.30
2018-04-07T10:55:14.218Z,47.50
2018-04-07T10:57:43.982Z,47.50
2018-04-07T11:00:13.749Z,47.60
2018-04-07T11:02:45.500Z,48.00
2018-04-07T11:05:13.842Z,49.10
2018-04-07T11:07:42.159Z,48.40
2018-04-07T11:10:11.267Z,48.50
2018-04-07T11:12:39.561Z,47.40
2018-04-07T11:15:09.578Z,47.00
2018-04-07T11:17:39.077Z,47.00
2018-04-07T11:20:07.387Z,48.80
2018-04-07T11:22:35.718Z,49.40
2018-04-07T11:25:04.859Z,47.80
2018-04-07T11:27:33.165Z,45.80
2018-04-07T11:30:02.218Z,41.10
2018-04-07T11:32:31.256Z,41.00
2018-04-07T11:35:00.602Z,41.00
2018-04-07T11:37:29.049Z,41.00
2018-04-07T11:40:01.083Z,42.10
2018-04-07T11:42:30.572Z,41.80
2018-04-07T11:45:00.013Z,39.60
2018-04-07T11:47:29.078Z,41.80
2018-04-07T11:49:57.444Z,41.80
2018-04-07T11:52:26.592Z,42.30
2018-04-07T11:54:54.875Z,42.70
2018-04-07T11:57:23.163Z,40.70
2018-04-07T11:59:52.912Z,42.00
2018-04-07T12:02:21.229Z,41.70
2018-04-07T12:04:49.514Z,39.90
2018-04-07T12:07:18.397Z,38.90
2018-04-07T12:09:46.713Z,38.90
2018-04-07T12:12:15.833Z,40.30
2018-04-07T12:14:45.497Z,40.30
2018-04-07T12:17:20.329Z,40.20
2018-04-07T12:19:49.537Z,41.80
2018-04-07T12:22:17.835Z,40.30
2018-04-07T12:24:46.135Z,39.80
2018-04-07T12:27:23.059Z,38.50
2018-04-07T12:29:51.367Z,38.50
2018-04-07T12:32:21.105Z,38.00
2018-04-07T12:34:49.467Z,39.10
2018-04-07T12:37:17.790Z,39.00
2018-04-07T12:39:47.166Z,39.50
2018-04-07T12:42:16.304Z,41.20
2018-04-07T12:44:45.654Z,41.70
2018-04-07T12:47:14.111Z,41.60
2018-04-07T12:49:51.401Z,39.80
2018-04-07T12:52:27.192Z,39.70
2018-04-07T12:54:56.703Z,38.50
2018-04-07T12:57:27.683Z,36.70
2018-04-07T12:59:56.704Z,36.60
2018-04-07T13:02:27.514Z,37.10
2018-04-07T13:04:55.882Z,36.60
2018-04-07T13:07:24.253Z,36.60
2018-04-07T13:09:54.159Z,36.00
2018-04-07T13:12:22.474Z,36.00
2018-04-07T13:14:50.831Z,35.70
2018-04-07T13:17:20.206Z,36.90
2018-04-07T13:19:49.744Z,37.20
2018-04-07T13:22:18.313Z,39.00
2018-04-07T13:24:47.987Z,40.40
2018-04-07T13:27:16.281Z,40.60
2018-04-07T13:29:44.575Z,42.00
2018-04-07T13:32:13.916Z,40.20
2018-04-07T13:34:42.269Z,41.40
2018-04-07T13:37:10.597Z,42.50
2018-04-07T13:39:39.885Z,40.90
2018-04-07T13:42:08.963Z,45.30
2018-04-07T13:44:37.323Z,44.60
2018-04-07T13:47:06.364Z,44.90
2018-04-07T13:49:36.671Z,45.20
2018-04-07T13:52:05.157Z,45.10
2018-04-07T13:54:34.609Z,44.70
2018-04-07T13:57:02.909Z,44.40
2018-04-07T13:59:31.282Z,44.50
2018-04-07T14:02:00.360Z,44.30
2018-04-07T14:04:30.258Z,44.90
2018-04-07T14:07:00.857Z,44.80
2018-04-07T14:09:30.974Z,45.50
2018-04-07T14:11:59.304Z,43.90
2018-04-07T14:14:28.366Z,43.10
2018-04-07T14:16:57.725Z,43.10
2018-04-07T14:19:26.084Z,43.80
2018-04-07T14:21:56.261Z,44.00
2018-04-07T14:24:25.741Z,42.10
2018-04-07T14:26:54.140Z,41.10
2018-04-07T14:29:23.002Z,41.70
2018-04-07T14:31:52.779Z,42.80
2018-04-07T14:34:21.445Z,42.40
2018-04-07T14:36:49.754Z,41.80
2018-04-07T14:39:19.008Z,42.60
2018-04-07T14:41:47.353Z,41.80
2018-04-07T14:44:15.907Z,40.90
2018-04-07T14:46:45.429Z,40.10
2018-04-07T14:49:13.757Z,40.40
2018-04-07T14:51:43.912Z,39.40
2018-04-07T14:54:13.569Z,39.40
2018-04-07T14:56:41.924Z,40.10
2018-04-07T14:59:10.259Z,38.20
2018-04-07T15:01:39.960Z,39.00
2018-04-07T15:04:08.250Z,39.10
2018-04-07T15:06:37.429Z,39.20
2018-04-07T15:09:06.632Z,39.20
2018-04-07T15:11:35.950Z,39.20
2018-04-07T15:14:04.259Z,40.10
2018-04-07T15:16:32.659Z,39.50
2018-04-07T15:19:01.526Z,40.00
2018-04-07T15:21:31.411Z,37.50
2018-04-07T15:24:00.596Z,38.30
2018-04-07T15:26:30.292Z,37.50
2018-04-07T15:28:58.584Z,38.40
2018-04-07T15:31:27.496Z,38.10
2018-04-07T15:33:56.325Z,39.40
2018-04-07T15:36:24.843Z,39.00
2018-04-07T15:38:53.529Z,39.40
2018-04-07T15:41:23.327Z,40.00
2018-04-07T15:43:52.685Z,40.00
2018-04-07T15:46:21.111Z,41.90
2018-04-07T15:48:51.165Z,41.70
2018-04-07T15:51:20.470Z,41.70
2018-04-07T15:53:49.676Z,40.50
2018-04-07T15:56:19.010Z,40.40
2018-04-07T15:58:47.366Z,39.90
2018-04-07T16:01:16.547Z,41.90
2018-04-07T16:03:46.736Z,42.20
2018-04-07T16:06:15.799Z,42.30
2018-04-07T16:08:44.973Z,43.60
2018-04-07T16:11:14.027Z,43.50
2018-04-07T16:13:42.336Z,43.20
2018-04-07T16:16:10.698Z,43.90
2018-04-07T16:18:39.610Z,44.20
2018-04-07T16:21:07.923Z,44.20
2018-04-07T16:23:37.933Z,45.10
2018-04-07T16:26:07.127Z,45.30
2018-04-07T16:28:36.186Z,48.30
2018-04-07T16:31:04.644Z,48.20
2018-04-07T16:33:33.566Z,49.20
2018-04-07T16:36:02.001Z,49.60
2018-04-07T16:38:30.762Z,50.90
2018-04-07T16:41:00.596Z,50.80
2018-04-07T16:43:29.293Z,51.70
2018-04-07T16:45:58.617Z,51.60
2018-04-07T16:48:27.827Z,52.50
2018-04-07T16:50:56.199Z,52.20
2018-04-07T16:53:24.865Z,52.70
2018-04-07T16:55:54.041Z,52.50
2018-04-07T16:58:23.130Z,53.10
2018-04-07T17:00:51.495Z,53.10
2018-04-07T17:03:21.123Z,53.40
2018-04-07T17:05:50.303Z,54.00
2018-04-07T17:08:18.736Z,54.00
2018-04-07T17:10:48.158Z,54.60
2018-04-07T17:13:20.094Z,54.50
2018-04-07T17:15:49.240Z,55.50
2018-04-07T17:18:17.806Z,55.50
2018-04-07T17:20:47.191Z,57.40
2018-04-07T17:23:16.016Z,59.40
2018-04-07T17:25:45.438Z,59.00
2018-04-07T17:28:14.765Z,60.90
2018-04-07T17:30:43.144Z,62.20
2018-04-07T17:33:12.435Z,67.40
2018-04-07T17:35:41.783Z,67.50
2018-04-07T17:38:10.248Z,69.90
2018-04-07T17:40:39.495Z,82.30
2018-04-07T17:43:08.711Z,82.30
2018-04-07T17:45:37.026Z,88.70
2018-04-07T17:48:05.533Z,93.30
2018-04-07T17:50:35.298Z,99.90
2018-04-07T17:53:03.658Z,99.90
2018-04-07T17:55:32.775Z,99.90
2018-04-07T17:58:02.299Z,99.90
2018-04-07T18:00:30.670Z,99.90
2018-04-07T18:02:59.595Z,99.90
2018-04-07T18:05:29.212Z,99.90
2018-04-07T18:07:57.716Z,99.90
2018-04-07T18:10:26.232Z,99.90
2018-04-07T18:12:56.039Z,99.90
2018-04-07T18:15:24.834Z,99.90
2018-04-07T18:17:53.345Z,99.90
2018-04-07T18:20:23.532Z,99.90
2018-04-07T18:22:52.057Z,99.90
2018-04-07T18:25:20.509Z,99.90
2018-04-07T18:27:50.749Z,99.90
2018-04-07T18:30:19.358Z,99.90
2018-04-07T18:32:47.699Z,99.90
2018-04-07T18:35:16.119Z,99.90
2018-04-07T18:37:46.239Z,99.90
2018-04-07T18:40:14.723Z,99.90
2018-04-07T18:42:43.450Z,99.90
2018-04-07T18:45:13.205Z,99.90
2018-04-07T18:47:42.874Z,99.90
2018-04-07T18:50:11.940Z,99.90
2018-04-07T18:52:42.046Z,99.90
2018-04-07T18:55:17.446Z,99.90
2018-04-07T18:57:48.236Z,99.90
2018-04-07T19:00:16.669Z,99.90
2018-04-07T19:02:45.012Z,99.90
2018-04-07T19:05:14.074Z,99.90
2018-04-07T19:07:42.743Z,99.90
2018-04-07T19:10:11.620Z,99.90
2018-04-07T19:12:40.928Z,99.90
2018-04-07T19:15:09.552Z,99.90
2018-04-07T19:17:39.161Z,99.90
2018-04-07T19:20:09.447Z,99.90
2018-04-07T19:22:37.870Z,99.90
2018-04-07T19:25:07.150Z,99.90
2018-04-07T19:27:37.295Z,99.90
2018-04-07T19:30:07.729Z,99.90
2018-04-07T19:32:36.266Z,99.90
2018-04-07T19:35:05.006Z,99.90
2018-04-07T19:37:34.415Z,99.90
2018-04-07T19:40:03.115Z,99.90
2018-04-07T19:42:33.598Z,99.90
2018-04-07T19:45:02.948Z,99.90
2018-04-07T19:47:32.277Z,99.90
2018-04-07T19:50:02.528Z,99.90
2018-04-07T19:52:37.923Z,99.90
2018-04-07T19:55:08.351Z,99.90
2018-04-07T19:57:38.024Z,99.90
2018-04-07T20:00:07.414Z,99.90
2018-04-07T20:02:36.653Z,99.90
2018-04-07T20:05:06.386Z,99.90
2018-04-07T20:07:42.771Z,99.90
2018-04-07T20:10:12.124Z,99.90
2018-04-07T20:12:43.092Z,99.90
2018-04-07T20:15:12.632Z,99.90
2018-04-07T20:17:42.110Z,99.90
2018-04-07T20:20:13.887Z,99.90
2018-04-07T20:22:45.372Z,99.90
2018-04-07T20:25:15.863Z,99.90
2018-04-07T20:27:46.421Z,99.90
2018-04-07T20:30:17.244Z,99.90
2018-04-07T20:32:47.796Z,99.90
2018-04-07T20:35:16.482Z,99.90
2018-04-07T20:37:47.052Z,99.90
2018-04-07T20:40:18.416Z,99.90
2018-04-07T20:43:03.815Z,99.90
2018-04-07T20:45:33.833Z,99.90
2018-04-07T20:48:06.211Z,99.90
2018-04-07T20:50:35.672Z,99.90
2018-04-07T20:53:21.406Z,99.90
2018-04-07T20:55:50.811Z,99.90
2018-04-07T20:58:21.792Z,99.90
2018-04-07T21:00:52.004Z,99.90
2018-04-07T21:06:19.123Z,99.90
2018-04-07T21:08:49.013Z,99.90
2018-04-07T21:11:23.159Z,99.90
2018-04-07T21:13:54.206Z,99.90
2018-04-07T21:16:29.852Z,99.90
2018-04-07T21:19:00.122Z,99.90
2018-04-07T21:21:32.246Z,99.90
2018-04-07T21:27:14.404Z,99.90
2018-04-07T21:29:45.290Z,99.90
2018-04-07T21:32:25.952Z,99.90
2018-04-07T21:34:56.795Z,99.90
2018-04-07T21:37:29.723Z,99.90
2018-04-07T21:40:02.747Z,99.90
2018-04-07T21:42:34.934Z,99.90
2018-04-07T21:45:07.730Z,99.90
2018-04-07T21:47:39.968Z,99.90
2018-04-07T21:50:09.948Z,99.90
2018-04-07T21:52:41.508Z,99.90
2018-04-07T21:55:12.916Z,99.90
2018-04-07T21:57:43.433Z,99.90
2018-04-07T22:00:14.468Z,99.90
2018-04-07T22:02:47.151Z,99.90
2018-04-07T22:05:17.716Z,99.90
2018-04-07T22:07:55.302Z,99.90
2018-04-07T22:10:25.140Z,99.90
2018-04-07T22:12:58.858Z,99.90
2018-04-07T22:15:36.136Z,99.90
2018-04-07T22:18:07.979Z,99.90
2018-04-07T22:20:38.200Z,99.90
2018-04-07T22:23:12.096Z,99.90
2018-04-07T22:25:42.508Z,99.90
2018-04-07T22:28:13.338Z,99.90
2018-04-07T22:30:51.457Z,99.90
2018-04-07T22:33:27.144Z,99.90
2018-04-07T22:35:57.050Z,99.90
2018-04-07T22:38:27.096Z,99.90
2018-04-07T22:40:56.399Z,99.90
2018-04-07T22:43:28.684Z,99.90
2018-04-07T22:45:57.566Z,99.90
2018-04-07T22:48:26.868Z,99.90
2018-04-07T22:51:07.486Z,99.90
2018-04-07T22:53:37.470Z,99.90
2018-04-07T22:56:06.557Z,99.90
2018-04-07T22:58:39.044Z,99.90
2018-04-07T23:01:08.994Z,99.90
2018-04-07T23:03:38.980Z,99.90
2018-04-07T23:06:08.473Z,99.90
2018-04-07T23:08:38.037Z,99.90
2018-04-07T23:11:08.642Z,99.90
2018-04-07T23:13:37.257Z,99.90
2018-04-07T23:16:07.210Z,99.90
2018-04-07T23:18:37.170Z,99.90
2018-04-07T23:21:05.740Z,99.90
2018-04-07T23:23:36.907Z,99.90
2018-04-07T23:26:09.264Z,99.90
2018-04-07T23:28:38.787Z,99.90
2018-04-07T23:31:13.418Z,99.90
2018-04-07T23:33:43.687Z,99.90
2018-04-07T23:36:13.236Z,99.90
2018-04-07T23:38:43.997Z,99.90
2018-04-07T23:41:13.116Z,99.90
2018-04-07T23:43:44.115Z,99.90
2018-04-07T23:46:14.931Z,99.90
2018-04-07T23:48:45.080Z,99.90
2018-04-07T23:51:15.048Z,99.90
2018-04-07T23:53:44.961Z,99.90
2018-04-07T23:56:14.690Z,99.90
2018-04-07T23:58:46.779Z,99.90
